createdAt,value
2019-04-01T00:00:01.144Z,5.47
2019-04-01T00:05:05.313Z,5.55
2019-04-01T00:10:08.793Z,5.47
2019-04-01T00:15:11.786Z,5.44
2019-04-01T00:20:15.371Z,5.47
2019-04-01T00:25:18.307Z,5.47
2019-04-01T00:30:21.520Z,5.28
2019-04-01T00:35:24.724Z,5.31
2019-04-01T00:40:27.929Z,5.06
2019-04-01T00:45:31.865Z,5.20
2019-04-01T00:50:35.100Z,5.15
2019-04-01T00:55:38.407Z,5.25
2019-04-01T01:00:41.292Z,5.39
2019-04-01T01:05:44.491Z,5.38
2019-04-01T01:10:47.704Z,5.24
2019-04-01T01:15:51.208Z,4.98
2019-04-01T01:20:54.745Z,4.88
2019-04-01T01:25:57.594Z,4.74
2019-04-01T01:31:00.704Z,4.48
2019-04-01T01:36:03.864Z,4.01
2019-04-01T01:41:06.764Z,3.98
2019-04-01T01:46:09.975Z,4.25
2019-04-01T01:51:12.829Z,4.30
2019-04-01T01:56:16.300Z,4.20
2019-04-01T02:01:19.343Z,4.29
2019-04-01T02:06:22.863Z,4.26
2019-04-01T02:11:26.004Z,4.18
2019-04-01T02:16:29.228Z,3.91
2019-04-01T02:21:32.449Z,4.00
2019-04-01T02:26:37.576Z,4.04
2019-04-01T02:31:40.802Z,4.03
2019-04-01T02:36:44.020Z,4.05
2019-04-01T02:41:47.514Z,3.88
2019-04-01T02:46:50.442Z,3.72
2019-04-01T02:51:52.940Z,3.88
2019-04-01T02:56:56.442Z,3.95
2019-04-01T03:01:59.313Z,3.87
2019-04-01T03:07:02.495Z,3.91
2019-04-01T03:12:05.976Z,3.65
2019-04-01T03:17:09.198Z,3.74
2019-04-01T03:22:12.709Z,3.70
2019-04-01T03:27:17.457Z,3.71
2019-04-01T03:32:20.773Z,3.63
2019-04-01T03:37:23.575Z,3.48
2019-04-01T03:42:25.924Z,3.59
2019-04-01T03:47:29.146Z,3.62
2019-04-01T03:52:32.139Z,3.55
2019-04-01T03:57:35.392Z,3.54
2019-04-01T04:02:38.666Z,3.49
2019-04-01T04:07:41.508Z,3.40
2019-04-01T04:12:44.653Z,3.30
2019-04-01T04:17:48.077Z,3.32
2019-04-01T04:22:50.728Z,3.32
2019-04-01T04:27:53.208Z,3.24
2019-04-01T04:32:56.070Z,3.29
2019-04-01T04:37:59.014Z,3.33
2019-04-01T04:43:02.127Z,3.27
2019-04-01T04:48:05.072Z,3.31
2019-04-01T04:53:08.210Z,3.32
2019-04-01T04:58:11.145Z,3.33
2019-04-01T05:03:14.322Z,3.36
2019-04-01T05:08:17.248Z,3.35
2019-04-01T05:13:20.790Z,3.37
2019-04-01T05:18:24.418Z,3.35
2019-04-01T05:23:28.605Z,3.31
2019-04-01T05:28:33.950Z,3.40
2019-04-01T05:33:54.565Z,3.46
2019-04-01T05:38:45.941Z,3.51
2019-04-01T05:43:49.437Z,3.46
2019-04-01T05:48:52.834Z,3.60
2019-04-01T05:53:56.425Z,3.64
2019-04-01T05:58:59.654Z,3.76
2019-04-01T06:04:02.149Z,3.78
2019-04-01T06:09:07.531Z,3.91
2019-04-01T06:14:10.753Z,4.16
2019-04-01T06:19:13.613Z,4.45
2019-04-01T06:24:16.117Z,4.66
2019-04-01T06:29:19.246Z,4.91
2019-04-01T06:34:23.902Z,5.24
2019-04-01T06:39:27.112Z,5.42
2019-04-01T06:44:30.067Z,5.55
2019-04-01T06:49:33.325Z,5.79
2019-04-01T06:54:36.879Z,5.83
2019-04-01T06:59:40.060Z,6.02
2019-04-01T07:04:43.260Z,5.83
2019-04-01T07:09:46.147Z,5.92
2019-04-01T07:14:49.180Z,6.13
2019-04-01T07:19:52.379Z,6.34
2019-04-01T07:24:55.285Z,6.57
2019-04-01T07:29:58.741Z,6.07
2019-04-01T07:35:02.343Z,6.20
2019-04-01T07:40:06.041Z,6.38
2019-04-01T07:45:09.773Z,6.70
2019-04-01T07:50:13.640Z,6.65
2019-04-01T07:55:16.796Z,6.24
2019-04-01T08:00:20.518Z,6.10
2019-04-01T08:05:26.075Z,6.59
2019-04-01T08:10:31.450Z,6.38
2019-04-01T08:15:34.848Z,6.65
2019-04-01T08:20:39.703Z,7.16
2019-04-01T08:25:43.151Z,7.49
2019-04-01T08:30:46.627Z,7.55
2019-04-01T08:35:52.240Z,7.12
2019-04-01T08:40:55.616Z,7.40
2019-04-01T08:45:59.359Z,7.55
2019-04-01T08:51:04.598Z,7.95
2019-04-01T08:56:07.910Z,8.18
2019-04-01T09:01:11.618Z,7.75
2019-04-01T09:06:15.069Z,7.85
2019-04-01T09:11:19.141Z,8.37
2019-04-01T09:16:22.863Z,8.04
2019-04-01T09:21:25.772Z,8.45
2019-04-01T09:26:28.602Z,8.44
2019-04-01T09:31:31.565Z,7.99
2019-04-01T09:36:34.822Z,8.11
2019-04-01T09:41:38.368Z,8.68
2019-04-01T09:46:41.608Z,9.01
2019-04-01T09:51:48.815Z,8.44
2019-04-01T09:56:49.249Z,9.00
2019-04-01T10:01:52.597Z,8.76
2019-04-01T10:06:55.946Z,8.47
2019-04-01T10:11:58.834Z,8.80
2019-04-01T10:17:02.082Z,9.34
2019-04-01T10:22:06.254Z,8.57
2019-04-01T10:27:09.589Z,9.24
2019-04-01T10:32:13.087Z,9.73
2019-04-01T10:37:16.831Z,10.10
2019-04-01T10:42:20.307Z,10.27
2019-04-01T10:47:23.551Z,9.80
2019-04-01T10:52:26.960Z,10.38
2019-04-01T10:57:30.405Z,11.04
2019-04-01T11:02:33.368Z,10.71
2019-04-01T11:07:36.728Z,10.68
2019-04-01T11:12:39.620Z,11.40
2019-04-01T11:17:43.904Z,10.65
2019-04-01T11:22:49.860Z,11.46
2019-04-01T11:27:53.287Z,11.74
2019-04-01T11:32:56.427Z,12.00
2019-04-01T11:37:59.733Z,12.35
2019-04-01T11:43:04.956Z,12.72
2019-04-01T11:48:07.090Z,12.41
2019-04-01T11:53:09.961Z,13.51
2019-04-01T11:58:13.687Z,13.61
2019-04-01T12:03:16.928Z,13.99
2019-04-01T12:08:20.307Z,14.28
2019-04-01T12:13:23.752Z,12.96
2019-04-01T12:18:26.924Z,13.78
2019-04-01T12:23:30.706Z,14.12
2019-04-01T12:28:36.413Z,14.53
2019-04-01T12:33:38.740Z,15.04
2019-04-01T12:38:41.751Z,15.29
2019-04-01T12:43:45.288Z,14.34
2019-04-01T12:48:48.683Z,14.19
2019-04-01T12:53:51.696Z,14.09
2019-04-01T12:58:54.690Z,13.42
2019-04-01T13:03:58.589Z,15.36
2019-04-01T13:09:01.419Z,16.46
2019-04-01T13:14:05.340Z,16.18
2019-04-01T13:19:08.555Z,16.53
2019-04-01T13:24:11.970Z,15.89
2019-04-01T13:29:15.261Z,14.49
2019-04-01T13:34:20.242Z,15.89
2019-04-01T13:39:23.361Z,15.56
2019-04-01T13:44:36.619Z,16.81
2019-04-01T13:49:32.295Z,17.10
2019-04-01T13:54:35.209Z,16.72
2019-04-01T13:59:49.111Z,16.91
2019-04-01T14:04:43.493Z,16.72
2019-04-01T14:09:46.903Z,17.00
2019-04-01T14:14:49.814Z,16.99
2019-04-01T14:19:53.005Z,16.68
2019-04-01T14:24:56.338Z,16.56
2019-04-01T14:29:59.247Z,16.89
2019-04-01T14:35:02.608Z,17.35
2019-04-01T14:40:07.741Z,17.49
2019-04-01T14:45:11.588Z,16.47
2019-04-01T14:50:14.862Z,18.02
2019-04-01T14:55:17.329Z,18.57
2019-04-01T15:00:20.086Z,17.56
2019-04-01T15:05:23.659Z,17.58
2019-04-01T15:10:27.319Z,18.08
2019-04-01T15:15:30.060Z,16.43
2019-04-01T15:20:33.381Z,16.98
2019-04-01T15:25:38.227Z,17.58
2019-04-01T15:30:41.266Z,17.91
2019-04-01T15:35:44.469Z,17.55
2019-04-01T15:40:47.849Z,16.63
2019-04-01T15:45:51.256Z,16.03
2019-04-01T15:50:54.683Z,16.66
2019-04-01T15:55:57.899Z,15.52
2019-04-01T16:01:01.269Z,16.15
2019-04-01T16:06:07.606Z,16.19
2019-04-01T16:11:10.369Z,15.25
2019-04-01T16:16:14.669Z,15.88
2019-04-01T16:21:17.892Z,14.49
2019-04-01T16:26:21.291Z,14.79
2019-04-01T16:31:26.636Z,14.24
2019-04-01T16:36:29.923Z,14.29
2019-04-01T16:41:33.538Z,13.79
2019-04-01T16:46:36.721Z,13.16
2019-04-01T16:51:41.364Z,12.77
2019-04-01T16:56:45.131Z,12.02
2019-04-01T17:01:48.617Z,12.20
2019-04-01T17:06:51.810Z,11.65
2019-04-01T17:11:55.290Z,11.38
2019-04-01T17:16:58.991Z,10.96
2019-04-01T17:22:03.075Z,10.49
2019-04-01T17:27:13.139Z,10.62
2019-04-01T17:32:16.220Z,10.49
2019-04-01T17:37:19.774Z,10.20
2019-04-01T17:42:23.954Z,10.15
2019-04-01T17:47:28.099Z,10.01
2019-04-01T17:52:31.305Z,9.40
2019-04-01T17:57:35.539Z,8.78
2019-04-01T18:02:38.766Z,8.99
2019-04-01T18:07:44.234Z,8.97
2019-04-01T18:12:49.473Z,9.03
2019-04-01T18:17:53.957Z,9.03
2019-04-01T18:22:58.290Z,8.51
2019-04-01T18:28:02.965Z,8.41
2019-04-01T18:33:06.994Z,8.60
2019-04-01T18:38:10.516Z,8.31
2019-04-01T18:43:13.979Z,8.24
2019-04-01T18:48:19.288Z,8.14
2019-04-01T18:53:28.522Z,7.54
2019-04-01T18:58:32.604Z,7.86
2019-04-01T19:03:35.323Z,7.75
2019-04-01T19:08:41.373Z,8.00
2019-04-01T19:13:44.962Z,8.07
2019-04-01T19:18:47.791Z,8.26
2019-04-01T19:24:01.058Z,7.96
2019-04-01T19:29:09.967Z,7.88
2019-04-01T19:34:13.694Z,7.87
2019-04-01T19:39:16.980Z,7.69
2019-04-01T19:44:20.349Z,7.80
2019-04-01T19:49:23.581Z,7.85
2019-04-01T19:54:34.002Z,7.77
2019-04-01T19:59:37.787Z,7.64
2019-04-01T20:04:41.441Z,7.32
2019-04-01T20:09:46.293Z,7.31
2019-04-01T20:14:50.827Z,7.22
2019-04-01T20:19:54.207Z,7.35
2019-04-01T20:24:57.782Z,7.37
2019-04-01T20:30:01.399Z,7.23
2019-04-01T20:35:05.789Z,7.24
2019-04-01T20:40:09.566Z,7.18
2019-04-01T20:45:13.609Z,7.06
2019-04-01T20:50:17.234Z,7.17
2019-04-01T20:55:19.810Z,7.15
2019-04-01T21:00:22.798Z,7.25
2019-04-01T21:05:26.860Z,7.20
2019-04-01T21:10:29.611Z,7.30
2019-04-01T21:15:32.481Z,7.07
2019-04-01T21:20:35.456Z,7.07
2019-04-01T21:25:38.608Z,7.09
2019-04-01T21:30:42.136Z,13.34
2019-04-01T21:35:45.372Z,12.14
2019-04-01T21:40:48.250Z,8.92
2019-04-01T21:45:51.827Z,7.50
2019-04-01T21:50:54.815Z,7.50
2019-04-01T21:55:58.095Z,7.22
2019-04-01T22:01:01.784Z,7.06
2019-04-01T22:06:05.114Z,7.08
2019-04-01T22:11:08.744Z,7.09
2019-04-01T22:16:11.903Z,7.05
2019-04-01T22:21:15.155Z,7.13
2019-04-01T22:26:18.717Z,7.06
2019-04-01T22:31:21.935Z,6.98
2019-04-01T22:36:31.061Z,7.02
2019-04-01T22:41:29.928Z,6.82
2019-04-01T22:46:34.707Z,6.62
2019-04-01T22:51:38.139Z,6.92
2019-04-01T22:56:41.602Z,6.88
2019-04-01T23:01:45.042Z,6.66
2019-04-01T23:06:48.061Z,6.77
2019-04-01T23:11:50.915Z,6.78
2019-04-01T23:16:53.544Z,6.85
2019-04-01T23:21:57.097Z,6.93
2019-04-01T23:26:59.873Z,6.85
2019-04-01T23:32:03.403Z,6.94
2019-04-01T23:37:06.324Z,6.89
2019-04-01T23:42:09.192Z,6.82
2019-04-01T23:47:12.576Z,6.75
2019-04-01T23:52:15.736Z,6.68
2019-04-01T23:57:18.536Z,6.75
